sensor_id;sensor_type;location;lat;lon;timestamp;temperature;humidity
74946;HTU21D;63509;45.250;38.102;2023-10-08T00:00:48;16.63;64.59
74946;HTU21D;63509;45.250;38.102;2023-10-08T00:03:16;16.63;64.59
74946;HTU21D;63509;45.250;38.102;2023-10-08T00:05:43;16.61;64.57
74946;HTU21D;63509;45.250;38.102;2023-10-08T00:08:12;16.60;64.56
74946;HTU21D;63509;45.250;38.102;2023-10-08T00:10:40;16.59;64.61
74946;HTU21D;63509;45.250;38.102;2023-10-08T00:13:11;16.58;64.58
74946;HTU21D;63509;45.250;38.102;2023-10-08T00:15:42;16.58;64.63
74946;HTU21D;63509;45.250;38.102;2023-10-08T00:18:22;16.58;64.63
74946;HTU21D;63509;45.250;38.102;2023-10-08T00:20:52;16.56;64.61
74946;HTU21D;63509;45.250;38.102;2023-10-08T00:23:41;16.55;64.53
74946;HTU21D;63509;45.250;38.102;2023-10-08T00:26:11;16.54;64.50
74946;HTU21D;63509;45.250;38.102;2023-10-08T00:28:38;16.52;64.60
74946;HTU21D;63509;45.250;38.102;2023-10-08T00:31:08;16.54;64.63
74946;HTU21D;63509;45.250;38.102;2023-10-08T00:33:38;16.52;64.55
74946;HTU21D;63509;45.250;38.102;2023-10-08T00:36:12;16.52;64.49
74946;HTU21D;63509;45.250;38.102;2023-10-08T00:38:48;16.52;64.51
74946;HTU21D;63509;45.250;38.102;2023-10-08T00:41:20;16.54;64.50
74946;HTU21D;63509;45.250;38.102;2023-10-08T00:43:49;16.55;64.50
74946;HTU21D;63509;45.250;38.102;2023-10-08T00:46:17;16.52;64.50
74946;HTU21D;63509;45.250;38.102;2023-10-08T00:48:52;16.52;64.46
74946;HTU21D;63509;45.250;38.102;2023-10-08T00:51:33;16.52;64.49
74946;HTU21D;63509;45.250;38.102;2023-10-08T00:54:06;16.52;64.55
74946;HTU21D;63509;45.250;38.102;2023-10-08T00:56:35;16.52;64.63
74946;HTU21D;63509;45.250;38.102;2023-10-08T00:59:20;16.51;64.63
74946;HTU21D;63509;45.250;38.102;2023-10-08T01:01:48;16.51;64.66
74946;HTU21D;63509;45.250;38.102;2023-10-08T01:04:18;16.50;64.63
74946;HTU21D;63509;45.250;38.102;2023-10-08T01:06:54;16.54;64.53
74946;HTU21D;63509;45.250;38.102;2023-10-08T01:09:39;16.51;64.59
74946;HTU21D;63509;45.250;38.102;2023-10-08T01:12:12;16.52;64.63
74946;HTU21D;63509;45.250;38.102;2023-10-08T01:14:42;16.54;64.69
74946;HTU21D;63509;45.250;38.102;2023-10-08T01:17:09;16.52;64.70
74946;HTU21D;63509;45.250;38.102;2023-10-08T01:19:40;16.52;64.73
74946;HTU21D;63509;45.250;38.102;2023-10-08T01:22:07;16.54;64.70
74946;HTU21D;63509;45.250;38.102;2023-10-08T01:24:42;16.54;64.72
74946;HTU21D;63509;45.250;38.102;2023-10-08T01:27:09;16.56;64.72
74946;HTU21D;63509;45.250;38.102;2023-10-08T01:29:38;16.57;64.74
74946;HTU21D;63509;45.250;38.102;2023-10-08T01:32:05;16.57;64.78
74946;HTU21D;63509;45.250;38.102;2023-10-08T01:34:37;16.57;64.72
74946;HTU21D;63509;45.250;38.102;2023-10-08T01:37:03;16.58;64.76
74946;HTU21D;63509;45.250;38.102;2023-10-08T01:39:37;16.57;64.67
74946;HTU21D;63509;45.250;38.102;2023-10-08T01:42:08;16.57;64.76
74946;HTU21D;63509;45.250;38.102;2023-10-08T01:44:50;16.56;64.61
74946;HTU21D;63509;45.250;38.102;2023-10-08T01:47:21;16.56;64.75
74946;HTU21D;63509;45.250;38.102;2023-10-08T01:49:51;16.55;64.85
74946;HTU21D;63509;45.250;38.102;2023-10-08T01:52:23;16.54;64.84
74946;HTU21D;63509;45.250;38.102;2023-10-08T01:54:50;16.52;64.82
74946;HTU21D;63509;45.250;38.102;2023-10-08T01:57:19;16.52;64.87
74946;HTU21D;63509;45.250;38.102;2023-10-08T01:59:46;16.50;64.94
74946;HTU21D;63509;45.250;38.102;2023-10-08T02:02:12;16.49;64.87
74946;HTU21D;63509;45.250;38.102;2023-10-08T02:04:40;16.48;64.91
74946;HTU21D;63509;45.250;38.102;2023-10-08T02:07:07;16.46;64.92
74946;HTU21D;63509;45.250;38.102;2023-10-08T02:09:40;16.45;64.98
74946;HTU21D;63509;45.250;38.102;2023-10-08T02:12:06;16.43;64.98
74946;HTU21D;63509;45.250;38.102;2023-10-08T02:14:32;16.41;65.03
74946;HTU21D;63509;45.250;38.102;2023-10-08T02:17:02;16.39;65.04
74946;HTU21D;63509;45.250;38.102;2023-10-08T02:19:32;16.36;65.09
74946;HTU21D;63509;45.250;38.102;2023-10-08T02:22:00;16.33;65.20
74946;HTU21D;63509;45.250;38.102;2023-10-08T02:24:26;16.32;65.17
74946;HTU21D;63509;45.250;38.102;2023-10-08T02:26:53;16.31;65.22
74946;HTU21D;63509;45.250;38.102;2023-10-08T02:29:26;16.27;65.17
74946;HTU21D;63509;45.250;38.102;2023-10-08T02:31:52;16.28;65.33
74946;HTU21D;63509;45.250;38.102;2023-10-08T02:34:19;16.27;65.37
74946;HTU21D;63509;45.250;38.102;2023-10-08T02:36:45;16.26;65.38
74946;HTU21D;63509;45.250;38.102;2023-10-08T02:39:13;16.25;65.46
74946;HTU21D;63509;45.250;38.102;2023-10-08T02:41:40;16.26;65.50
74946;HTU21D;63509;45.250;38.102;2023-10-08T02:44:12;16.25;65.52
74946;HTU21D;63509;45.250;38.102;2023-10-08T02:46:46;16.24;65.42
74946;HTU21D;63509;45.250;38.102;2023-10-08T02:49:15;16.25;65.56
74946;HTU21D;63509;45.250;38.102;2023-10-08T02:51:47;16.24;65.53
74946;HTU21D;63509;45.250;38.102;2023-10-08T02:54:16;16.24;65.59
74946;HTU21D;63509;45.250;38.102;2023-10-08T02:57:04;16.22;65.54
74946;HTU21D;63509;45.250;38.102;2023-10-08T02:59:31;16.22;65.56
74946;HTU21D;63509;45.250;38.102;2023-10-08T03:02:11;16.21;65.59
74946;HTU21D;63509;45.250;38.102;2023-10-08T03:04:48;16.21;65.55
74946;HTU21D;63509;45.250;38.102;2023-10-08T03:07:16;16.21;65.65
74946;HTU21D;63509;45.250;38.102;2023-10-08T03:10:03;16.19;65.67
74946;HTU21D;63509;45.250;38.102;2023-10-08T03:12:34;16.19;65.17
74946;HTU21D;63509;45.250;38.102;2023-10-08T03:15:05;16.16;65.46
74946;HTU21D;63509;45.250;38.102;2023-10-08T03:17:50;16.17;65.64
74946;HTU21D;63509;45.250;38.102;2023-10-08T03:20:19;16.17;65.68
74946;HTU21D;63509;45.250;38.102;2023-10-08T03:23:07;16.17;65.62
74946;HTU21D;63509;45.250;38.102;2023-10-08T03:25:56;16.17;65.59
74946;HTU21D;63509;45.250;38.102;2023-10-08T03:29:00;16.17;65.62
74946;HTU21D;63509;45.250;38.102;2023-10-08T03:31:26;16.17;65.70
74946;HTU21D;63509;45.250;38.102;2023-10-08T03:34:14;16.17;65.71
74946;HTU21D;63509;45.250;38.102;2023-10-08T03:36:41;16.18;65.71
74946;HTU21D;63509;45.250;38.102;2023-10-08T03:39:11;16.19;65.79
74946;HTU21D;63509;45.250;38.102;2023-10-08T03:41:41;16.19;65.76
74946;HTU21D;63509;45.250;38.102;2023-10-08T03:44:08;16.21;65.80
74946;HTU21D;63509;45.250;38.102;2023-10-08T03:46:42;16.21;65.86
74946;HTU21D;63509;45.250;38.102;2023-10-08T03:49:09;16.24;65.84
74946;HTU21D;63509;45.250;38.102;2023-10-08T03:51:56;16.24;65.87
74946;HTU21D;63509;45.250;38.102;2023-10-08T03:54:23;16.26;65.90
74946;HTU21D;63509;45.250;38.102;2023-10-08T03:56:55;16.28;65.88
74946;HTU21D;63509;45.250;38.102;2023-10-08T03:59:22;16.27;65.95
74946;HTU21D;63509;45.250;38.102;2023-10-08T04:01:58;16.29;65.90
74946;HTU21D;63509;45.250;38.102;2023-10-08T04:04:40;16.30;65.90
74946;HTU21D;63509;45.250;38.102;2023-10-08T04:07:26;16.33;65.91
74946;HTU21D;63509;45.250;38.102;2023-10-08T04:09:52;16.35;65.97
74946;HTU21D;63509;45.250;38.102;2023-10-08T04:12:39;16.40;65.97
74946;HTU21D;63509;45.250;38.102;2023-10-08T04:15:17;16.45;65.95
74946;HTU21D;63509;45.250;38.102;2023-10-08T04:17:44;16.49;66.00
74946;HTU21D;63509;45.250;38.102;2023-10-08T04:22:57;16.65;65.93
74946;HTU21D;63509;45.250;38.102;2023-10-08T04:25:26;16.73;66.01
74946;HTU21D;63509;45.250;38.102;2023-10-08T04:27:54;16.81;65.98
74946;HTU21D;63509;45.250;38.102;2023-10-08T04:30:27;16.90;65.85
74946;HTU21D;63509;45.250;38.102;2023-10-08T04:33:03;17.00;65.72
74946;HTU21D;63509;45.250;38.102;2023-10-08T04:35:34;17.10;65.81
74946;HTU21D;63509;45.250;38.102;2023-10-08T04:38:20;17.19;65.62
74946;HTU21D;63509;45.250;38.102;2023-10-08T04:40:50;17.28;65.62
74946;HTU21D;63509;45.250;38.102;2023-10-08T04:43:19;17.35;65.56
74946;HTU21D;63509;45.250;38.102;2023-10-08T04:45:52;17.44;65.50
74946;HTU21D;63509;45.250;38.102;2023-10-08T04:48:18;17.51;65.41
74946;HTU21D;63509;45.250;38.102;2023-10-08T04:50:48;17.55;65.33
74946;HTU21D;63509;45.250;38.102;2023-10-08T04:53:33;17.64;65.21
74946;HTU21D;63509;45.250;38.102;2023-10-08T04:56:04;17.69;65.17
74946;HTU21D;63509;45.250;38.102;2023-10-08T04:58:40;17.73;65.10
74946;HTU21D;63509;45.250;38.102;2023-10-08T05:01:07;17.77;65.06
74946;HTU21D;63509;45.250;38.102;2023-10-08T05:03:54;17.81;65.04
74946;HTU21D;63509;45.250;38.102;2023-10-08T05:06:34;17.83;64.97
74946;HTU21D;63509;45.250;38.102;2023-10-08T05:09:10;17.85;64.94
74946;HTU21D;63509;45.250;38.102;2023-10-08T05:11:39;17.90;64.98
74946;HTU21D;63509;45.250;38.102;2023-10-08T05:14:12;17.94;64.99
74946;HTU21D;63509;45.250;38.102;2023-10-08T05:16:56;18.02;64.98
74946;HTU21D;63509;45.250;38.102;2023-10-08T05:19:41;18.11;64.92
74946;HTU21D;63509;45.250;38.102;2023-10-08T05:22:15;18.21;64.85
74946;HTU21D;63509;45.250;38.102;2023-10-08T05:24:55;18.34;64.79
74946;HTU21D;63509;45.250;38.102;2023-10-08T05:27:41;18.44;64.72
74946;HTU21D;63509;45.250;38.102;2023-10-08T05:30:18;18.58;64.53
74946;HTU21D;63509;45.250;38.102;2023-10-08T05:32:58;18.73;64.31
74946;HTU21D;63509;45.250;38.102;2023-10-08T05:35:30;18.84;64.24
74946;HTU21D;63509;45.250;38.102;2023-10-08T05:38:07;18.96;64.04
74946;HTU21D;63509;45.250;38.102;2023-10-08T05:40:45;19.07;63.88
74946;HTU21D;63509;45.250;38.102;2023-10-08T05:43:37;19.20;63.73
74946;HTU21D;63509;45.250;38.102;2023-10-08T05:46:11;19.29;63.53
74946;HTU21D;63509;45.250;38.102;2023-10-08T05:48:59;19.42;63.33
74946;HTU21D;63509;45.250;38.102;2023-10-08T05:51:42;19.54;63.11
74946;HTU21D;63509;45.250;38.102;2023-10-08T05:54:22;19.65;62.88
74946;HTU21D;63509;45.250;38.102;2023-10-08T05:57:05;19.75;62.57
74946;HTU21D;63509;45.250;38.102;2023-10-08T05:59:41;19.83;62.39
74946;HTU21D;63509;45.250;38.102;2023-10-08T06:02:19;19.92;62.21
74946;HTU21D;63509;45.250;38.102;2023-10-08T06:05:08;20.04;62.06
74946;HTU21D;63509;45.250;38.102;2023-10-08T06:07:38;20.16;61.87
74946;HTU21D;63509;45.250;38.102;2023-10-08T06:13:08;20.34;61.25
74946;HTU21D;63509;45.250;38.102;2023-10-08T06:15:44;20.41;61.05
74946;HTU21D;63509;45.250;38.102;2023-10-08T06:18:27;20.42;60.73
74946;HTU21D;63509;45.250;38.102;2023-10-08T06:20:56;20.45;60.63
74946;HTU21D;63509;45.250;38.102;2023-10-08T06:23:26;20.50;60.49
74946;HTU21D;63509;45.250;38.102;2023-10-08T06:25:55;20.56;60.25
74946;HTU21D;63509;45.250;38.102;2023-10-08T06:28:54;20.64;59.86
74946;HTU21D;63509;45.250;38.102;2023-10-08T06:31:23;20.71;59.83
74946;HTU21D;63509;45.250;38.102;2023-10-08T06:33:50;20.80;59.60
74946;HTU21D;63509;45.250;38.102;2023-10-08T06:36:17;20.88;59.22
74946;HTU21D;63509;45.250;38.102;2023-10-08T06:38:49;20.95;58.83
74946;HTU21D;63509;45.250;38.102;2023-10-08T06:41:16;21.05;58.51
74946;HTU21D;63509;45.250;38.102;2023-10-08T06:43:47;21.14;58.39
74946;HTU21D;63509;45.250;38.102;2023-10-08T06:46:29;21.25;58.43
74946;HTU21D;63509;45.250;38.102;2023-10-08T06:48:59;21.37;58.02
74946;HTU21D;63509;45.250;38.102;2023-10-08T06:51:25;21.51;57.74
74946;HTU21D;63509;45.250;38.102;2023-10-08T06:53:52;21.62;57.44
74946;HTU21D;63509;45.250;38.102;2023-10-08T06:56:19;21.77;57.07
74946;HTU21D;63509;45.250;38.102;2023-10-08T06:58:46;21.92;56.41
74946;HTU21D;63509;45.250;38.102;2023-10-08T07:01:21;22.02;56.03
74946;HTU21D;63509;45.250;38.102;2023-10-08T07:03:48;22.08;55.42
74946;HTU21D;63509;45.250;38.102;2023-10-08T07:06:18;22.09;55.18
74946;HTU21D;63509;45.250;38.102;2023-10-08T07:09:02;22.10;55.10
74946;HTU21D;63509;45.250;38.102;2023-10-08T07:11:33;22.07;54.53
74946;HTU21D;63509;45.250;38.102;2023-10-08T07:14:05;22.05;54.38
74946;HTU21D;63509;45.250;38.102;2023-10-08T07:16:32;22.10;54.41
74946;HTU21D;63509;45.250;38.102;2023-10-08T07:18:59;22.17;54.07
74946;HTU21D;63509;45.250;38.102;2023-10-08T07:21:31;22.23;53.91
74946;HTU21D;63509;45.250;38.102;2023-10-08T07:24:14;22.28;53.65
74946;HTU21D;63509;45.250;38.102;2023-10-08T07:26:46;22.32;53.23
74946;HTU21D;63509;45.250;38.102;2023-10-08T07:29:14;22.38;53.20
74946;HTU21D;63509;45.250;38.102;2023-10-08T07:31:44;22.43;52.86
74946;HTU21D;63509;45.250;38.102;2023-10-08T07:34:21;22.46;52.48
74946;HTU21D;63509;45.250;38.102;2023-10-08T07:36:50;22.49;52.16
74946;HTU21D;63509;45.250;38.102;2023-10-08T07:39:18;22.55;52.15
74946;HTU21D;63509;45.250;38.102;2023-10-08T07:41:55;22.65;52.15
74946;HTU21D;63509;45.250;38.102;2023-10-08T07:44:22;22.69;51.62
74946;HTU21D;63509;45.250;38.102;2023-10-08T07:46:51;22.69;51.36
74946;HTU21D;63509;45.250;38.102;2023-10-08T07:49:20;22.69;51.29
74946;HTU21D;63509;45.250;38.102;2023-10-08T07:51:49;22.75;50.97
74946;HTU21D;63509;45.250;38.102;2023-10-08T07:54:20;22.72;50.88
74946;HTU21D;63509;45.250;38.102;2023-10-08T07:56:49;22.76;50.59
74946;HTU21D;63509;45.250;38.102;2023-10-08T07:59:15;22.78;50.18
74946;HTU21D;63509;45.250;38.102;2023-10-08T08:01:43;22.76;50.04
74946;HTU21D;63509;45.250;38.102;2023-10-08T08:04:11;22.75;49.91
74946;HTU21D;63509;45.250;38.102;2023-10-08T08:06:40;22.78;49.67
74946;HTU21D;63509;45.250;38.102;2023-10-08T08:09:07;22.82;49.50
74946;HTU21D;63509;45.250;38.102;2023-10-08T08:11:46;22.91;49.51
74946;HTU21D;63509;45.250;38.102;2023-10-08T08:14:20;23.00;49.34
74946;HTU21D;63509;45.250;38.102;2023-10-08T08:16:51;23.09;49.02
74946;HTU21D;63509;45.250;38.102;2023-10-08T08:19:17;23.16;48.75
74946;HTU21D;63509;45.250;38.102;2023-10-08T08:21:50;23.30;48.66
74946;HTU21D;63509;45.250;38.102;2023-10-08T08:24:18;23.47;49.64
74946;HTU21D;63509;45.250;38.102;2023-10-08T08:26:55;23.66;48.53
74946;HTU21D;63509;45.250;38.102;2023-10-08T08:29:42;23.81;49.40
74946;HTU21D;63509;45.250;38.102;2023-10-08T08:32:11;23.88;47.83
74946;HTU21D;63509;45.250;38.102;2023-10-08T08:34:47;23.95;47.36
74946;HTU21D;63509;45.250;38.102;2023-10-08T08:37:16;24.00;47.00
74946;HTU21D;63509;45.250;38.102;2023-10-08T08:39:43;24.10;46.89
74946;HTU21D;63509;45.250;38.102;2023-10-08T08:42:09;24.21;45.99
74946;HTU21D;63509;45.250;38.102;2023-10-08T08:44:40;24.29;45.55
74946;HTU21D;63509;45.250;38.102;2023-10-08T08:47:14;24.39;45.40
74946;HTU21D;63509;45.250;38.102;2023-10-08T08:49:45;24.51;45.19
74946;HTU21D;63509;45.250;38.102;2023-10-08T08:52:12;24.59;44.68
74946;HTU21D;63509;45.250;38.102;2023-10-08T08:54:39;24.64;45.99
74946;HTU21D;63509;45.250;38.102;2023-10-08T08:57:10;24.64;44.96
74946;HTU21D;63509;45.250;38.102;2023-10-08T08:59:53;24.65;44.85
74946;HTU21D;63509;45.250;38.102;2023-10-08T09:02:20;24.65;43.92
74946;HTU21D;63509;45.250;38.102;2023-10-08T09:04:48;24.69;43.87
74946;HTU21D;63509;45.250;38.102;2023-10-08T09:07:18;24.72;43.41
74946;HTU21D;63509;45.250;38.102;2023-10-08T09:09:47;24.73;43.19
74946;HTU21D;63509;45.250;38.102;2023-10-08T09:12:18;24.71;43.27
74946;HTU21D;63509;45.250;38.102;2023-10-08T09:14:47;24.71;42.85
74946;HTU21D;63509;45.250;38.102;2023-10-08T09:17:16;24.72;42.76
74946;HTU21D;63509;45.250;38.102;2023-10-08T09:19:43;24.73;42.60
74946;HTU21D;63509;45.250;38.102;2023-10-08T09:22:10;24.75;42.48
74946;HTU21D;63509;45.250;38.102;2023-10-08T09:24:40;24.77;42.41
74946;HTU21D;63509;45.250;38.102;2023-10-08T09:27:07;24.80;42.38
74946;HTU21D;63509;45.250;38.102;2023-10-08T09:29:36;24.85;42.49
74946;HTU21D;63509;45.250;38.102;2023-10-08T09:32:09;24.92;42.19
74946;HTU21D;63509;45.250;38.102;2023-10-08T09:34:36;24.95;41.85
74946;HTU21D;63509;45.250;38.102;2023-10-08T09:37:02;24.94;41.78
74946;HTU21D;63509;45.250;38.102;2023-10-08T09:39:30;24.95;42.02
74946;HTU21D;63509;45.250;38.102;2023-10-08T09:42:03;25.01;42.05
74946;HTU21D;63509;45.250;38.102;2023-10-08T09:44:32;25.03;41.87
74946;HTU21D;63509;45.250;38.102;2023-10-08T09:47:03;25.04;41.79
74946;HTU21D;63509;45.250;38.102;2023-10-08T09:49:40;25.03;41.76
74946;HTU21D;63509;45.250;38.102;2023-10-08T09:52:09;25.01;41.48
74946;HTU21D;63509;45.250;38.102;2023-10-08T09:54:55;24.98;41.90
74946;HTU21D;63509;45.250;38.102;2023-10-08T09:57:24;24.97;41.90
74946;HTU21D;63509;45.250;38.102;2023-10-08T09:59:52;25.04;41.82
74946;HTU21D;63509;45.250;38.102;2023-10-08T10:02:20;25.05;41.74
74946;HTU21D;63509;45.250;38.102;2023-10-08T10:04:55;25.06;42.03
74946;HTU21D;63509;45.250;38.102;2023-10-08T10:07:22;25.09;41.87
74946;HTU21D;63509;45.250;38.102;2023-10-08T10:09:52;25.12;41.96
74946;HTU21D;63509;45.250;38.102;2023-10-08T10:12:26;25.13;41.71
74946;HTU21D;63509;45.250;38.102;2023-10-08T10:14:53;25.13;41.58
74946;HTU21D;63509;45.250;38.102;2023-10-08T10:17:27;25.09;41.49
74946;HTU21D;63509;45.250;38.102;2023-10-08T10:20:01;25.14;41.73
74946;HTU21D;63509;45.250;38.102;2023-10-08T10:22:37;25.15;41.60
74946;HTU21D;63509;45.250;38.102;2023-10-08T10:25:04;25.12;41.40
74946;HTU21D;63509;45.250;38.102;2023-10-08T10:30:32;25.14;41.49
74946;HTU21D;63509;45.250;38.102;2023-10-08T10:33:01;25.14;41.38
74946;HTU21D;63509;45.250;38.102;2023-10-08T10:35:29;25.10;41.35
74946;HTU21D;63509;45.250;38.102;2023-10-08T10:37:56;25.04;41.45
74946;HTU21D;63509;45.250;38.102;2023-10-08T10:40:29;24.91;41.57
74946;HTU21D;63509;45.250;38.102;2023-10-08T10:43:09;24.84;41.90
74946;HTU21D;63509;45.250;38.102;2023-10-08T10:45:36;24.74;42.06
74946;HTU21D;63509;45.250;38.102;2023-10-08T10:48:03;24.64;42.49
74946;HTU21D;63509;45.250;38.102;2023-10-08T10:50:48;24.54;42.79
74946;HTU21D;63509;45.250;38.102;2023-10-08T10:53:34;24.43;43.08
74946;HTU21D;63509;45.250;38.102;2023-10-08T10:56:20;24.38;43.33
74946;HTU21D;63509;45.250;38.102;2023-10-08T10:59:02;24.32;43.61
74946;HTU21D;63509;45.250;38.102;2023-10-08T11:01:53;24.29;43.76
74946;HTU21D;63509;45.250;38.102;2023-10-08T11:04:32;24.31;43.93
74946;HTU21D;63509;45.250;38.102;2023-10-08T11:07:00;24.29;43.87
74946;HTU21D;63509;45.250;38.102;2023-10-08T11:09:27;24.26;44.02
74946;HTU21D;63509;45.250;38.102;2023-10-08T11:12:07;24.16;44.29
74946;HTU21D;63509;45.250;38.102;2023-10-08T11:14:39;24.09;44.68
74946;HTU21D;63509;45.250;38.102;2023-10-08T11:17:16;24.02;44.74
74946;HTU21D;63509;45.250;38.102;2023-10-08T11:19:47;23.94;44.99
74946;HTU21D;63509;45.250;38.102;2023-10-08T11:22:14;23.92;45.10
74946;HTU21D;63509;45.250;38.102;2023-10-08T11:24:45;23.87;45.12
74946;HTU21D;63509;45.250;38.102;2023-10-08T11:27:20;23.80;45.29
74946;HTU21D;63509;45.250;38.102;2023-10-08T11:29:56;23.76;45.46
74946;HTU21D;63509;45.250;38.102;2023-10-08T11:32:24;23.79;45.34
74946;HTU21D;63509;45.250;38.102;2023-10-08T11:34:58;23.76;45.19
74946;HTU21D;63509;45.250;38.102;2023-10-08T11:37:47;23.76;45.35
74946;HTU21D;63509;45.250;38.102;2023-10-08T11:40:24;23.79;45.19
74946;HTU21D;63509;45.250;38.102;2023-10-08T11:43:09;23.75;45.19
74946;HTU21D;63509;45.250;38.102;2023-10-08T11:45:43;23.73;45.09
74946;HTU21D;63509;45.250;38.102;2023-10-08T11:48:14;23.70;45.38
74946;HTU21D;63509;45.250;38.102;2023-10-08T11:50:48;23.68;45.49
74946;HTU21D;63509;45.250;38.102;2023-10-08T11:53:19;23.69;45.41
74946;HTU21D;63509;45.250;38.102;2023-10-08T11:55:46;23.71;45.64
74946;HTU21D;63509;45.250;38.102;2023-10-08T11:58:14;23.74;45.62
74946;HTU21D;63509;45.250;38.102;2023-10-08T12:00:44;23.76;45.41
74946;HTU21D;63509;45.250;38.102;2023-10-08T12:03:12;23.75;45.30
74946;HTU21D;63509;45.250;38.102;2023-10-08T12:05:39;23.72;45.39
74946;HTU21D;63509;45.250;38.102;2023-10-08T12:08:16;23.70;45.56
74946;HTU21D;63509;45.250;38.102;2023-10-08T12:10:46;23.70;45.46
74946;HTU21D;63509;45.250;38.102;2023-10-08T12:13:14;23.70;45.62
74946;HTU21D;63509;45.250;38.102;2023-10-08T12:15:44;23.73;45.45
74946;HTU21D;63509;45.250;38.102;2023-10-08T12:18:10;23.74;45.57
74946;HTU21D;63509;45.250;38.102;2023-10-08T12:21:02;23.75;45.62
74946;HTU21D;63509;45.250;38.102;2023-10-08T12:23:32;23.75;45.73
74946;HTU21D;63509;45.250;38.102;2023-10-08T12:25:59;23.73;45.96
74946;HTU21D;63509;45.250;38.102;2023-10-08T12:28:29;23.73;45.73
74946;HTU21D;63509;45.250;38.102;2023-10-08T12:30:55;23.71;45.83
74946;HTU21D;63509;45.250;38.102;2023-10-08T12:33:22;23.72;45.89
74946;HTU21D;63509;45.250;38.102;2023-10-08T12:35:56;23.70;45.93
74946;HTU21D;63509;45.250;38.102;2023-10-08T12:38:24;23.65;46.06
74946;HTU21D;63509;45.250;38.102;2023-10-08T12:40:54;23.61;46.15
74946;HTU21D;63509;45.250;38.102;2023-10-08T12:43:21;23.56;46.28
74946;HTU21D;63509;45.250;38.102;2023-10-08T12:45:49;23.47;46.54
74946;HTU21D;63509;45.250;38.102;2023-10-08T12:48:25;23.40;46.72
74946;HTU21D;63509;45.250;38.102;2023-10-08T12:50:53;23.35;46.85
74946;HTU21D;63509;45.250;38.102;2023-10-08T12:53:26;23.29;46.86
74946;HTU21D;63509;45.250;38.102;2023-10-08T12:56:00;23.24;46.74
74946;HTU21D;63509;45.250;38.102;2023-10-08T12:58:33;23.16;46.90
74946;HTU21D;63509;45.250;38.102;2023-10-08T13:01:08;23.09;47.31
74946;HTU21D;63509;45.250;38.102;2023-10-08T13:03:44;23.03;47.54
74946;HTU21D;63509;45.250;38.102;2023-10-08T13:06:18;22.99;47.66
74946;HTU21D;63509;45.250;38.102;2023-10-08T13:08:51;22.97;47.61
74946;HTU21D;63509;45.250;38.102;2023-10-08T13:11:19;22.92;47.80
74946;HTU21D;63509;45.250;38.102;2023-10-08T13:13:53;22.84;47.93
74946;HTU21D;63509;45.250;38.102;2023-10-08T13:16:23;22.77;48.23
74946;HTU21D;63509;45.250;38.102;2023-10-08T13:18:51;22.72;48.40
74946;HTU21D;63509;45.250;38.102;2023-10-08T13:21:18;22.66;48.69
74946;HTU21D;63509;45.250;38.102;2023-10-08T13:23:52;22.61;49.00
74946;HTU21D;63509;45.250;38.102;2023-10-08T13:26:19;22.54;49.08
74946;HTU21D;63509;45.250;38.102;2023-10-08T13:28:49;22.48;49.27
74946;HTU21D;63509;45.250;38.102;2023-10-08T13:31:17;22.42;49.43
74946;HTU21D;63509;45.250;38.102;2023-10-08T13:33:45;22.34;49.63
74946;HTU21D;63509;45.250;38.102;2023-10-08T13:36:15;22.25;49.86
74946;HTU21D;63509;45.250;38.102;2023-10-08T13:38:43;22.19;50.11
74946;HTU21D;63509;45.250;38.102;2023-10-08T13:41:12;22.13;50.29
74946;HTU21D;63509;45.250;38.102;2023-10-08T13:43:43;22.07;50.54
74946;HTU21D;63509;45.250;38.102;2023-10-08T13:46:14;22.01;50.88
74946;HTU21D;63509;45.250;38.102;2023-10-08T13:48:41;21.94;50.35
74946;HTU21D;63509;45.250;38.102;2023-10-08T13:51:08;21.87;51.12
74946;HTU21D;63509;45.250;38.102;2023-10-08T13:53:41;21.81;51.39
74946;HTU21D;63509;45.250;38.102;2023-10-08T13:56:11;21.74;51.56
74946;HTU21D;63509;45.250;38.102;2023-10-08T13:58:38;21.72;51.75
74946;HTU21D;63509;45.250;38.102;2023-10-08T14:01:15;21.66;51.78
74946;HTU21D;63509;45.250;38.102;2023-10-08T14:03:51;21.62;51.92
74946;HTU21D;63509;45.250;38.102;2023-10-08T14:06:23;21.58;52.18
74946;HTU21D;63509;45.250;38.102;2023-10-08T14:08:51;21.55;52.29
74946;HTU21D;63509;45.250;38.102;2023-10-08T14:11:19;21.52;52.42
74946;HTU21D;63509;45.250;38.102;2023-10-08T14:13:45;21.49;52.53
74946;HTU21D;63509;45.250;38.102;2023-10-08T14:16:13;21.47;52.68
74946;HTU21D;63509;45.250;38.102;2023-10-08T14:18:42;21.44;52.81
74946;HTU21D;63509;45.250;38.102;2023-10-08T14:21:09;21.40;52.98
74946;HTU21D;63509;45.250;38.102;2023-10-08T14:23:38;21.38;53.21
74946;HTU21D;63509;45.250;38.102;2023-10-08T14:26:07;21.36;53.30
74946;HTU21D;63509;45.250;38.102;2023-10-08T14:28:34;21.35;53.43
74946;HTU21D;63509;45.250;38.102;2023-10-08T14:31:09;21.33;53.58
74946;HTU21D;63509;45.250;38.102;2023-10-08T14:33:44;21.31;53.68
74946;HTU21D;63509;45.250;38.102;2023-10-08T14:36:32;21.27;53.91
74946;HTU21D;63509;45.250;38.102;2023-10-08T14:39:17;21.24;54.12
74946;HTU21D;63509;45.250;38.102;2023-10-08T14:42:02;21.21;54.41
74946;HTU21D;63509;45.250;38.102;2023-10-08T14:44:47;21.20;54.60
74946;HTU21D;63509;45.250;38.102;2023-10-08T14:47:15;21.16;54.80
74946;HTU21D;63509;45.250;38.102;2023-10-08T14:49:41;21.15;54.99
74946;HTU21D;63509;45.250;38.102;2023-10-08T14:52:09;21.11;55.08
74946;HTU21D;63509;45.250;38.102;2023-10-08T14:54:35;21.09;55.25
74946;HTU21D;63509;45.250;38.102;2023-10-08T14:57:04;21.08;55.42
74946;HTU21D;63509;45.250;38.102;2023-10-08T14:59:32;21.05;55.52
74946;HTU21D;63509;45.250;38.102;2023-10-08T15:01:58;21.04;55.68
74946;HTU21D;63509;45.250;38.102;2023-10-08T15:04:25;21.01;55.82
74946;HTU21D;63509;45.250;38.102;2023-10-08T15:06:58;21.00;55.74
74946;HTU21D;63509;45.250;38.102;2023-10-08T15:09:24;20.99;56.09
74946;HTU21D;63509;45.250;38.102;2023-10-08T15:11:51;20.96;56.31
74946;HTU21D;63509;45.250;38.102;2023-10-08T15:14:21;20.95;56.21
74946;HTU21D;63509;45.250;38.102;2023-10-08T15:16:52;20.93;56.51
74946;HTU21D;63509;45.250;38.102;2023-10-08T15:19:19;20.91;56.64
74946;HTU21D;63509;45.250;38.102;2023-10-08T15:21:46;20.89;56.77
74946;HTU21D;63509;45.250;38.102;2023-10-08T15:24:20;20.88;56.93
74946;HTU21D;63509;45.250;38.102;2023-10-08T15:26:51;20.89;56.94
74946;HTU21D;63509;45.250;38.102;2023-10-08T15:29:22;20.87;57.21
74946;HTU21D;63509;45.250;38.102;2023-10-08T15:31:55;20.85;57.18
74946;HTU21D;63509;45.250;38.102;2023-10-08T15:34:21;20.85;57.59
74946;HTU21D;63509;45.250;38.102;2023-10-08T15:36:49;20.86;57.83
74946;HTU21D;63509;45.250;38.102;2023-10-08T15:39:16;20.86;57.90
74946;HTU21D;63509;45.250;38.102;2023-10-08T15:41:52;20.86;57.96